Time;durP1;ratioP1;P1;durP2;ratioP2;P2;SDS_P1;SDS_P2;PMS_P1;PMS_P2;Temp;Humidity;BMP_temperature;BMP_pressure;BME280_temperature;BME280_humidity;BME280_pressure;Samples;Min_cycle;Max_cycle;Signal;HPM_P1;HPM_P2
2022/10/14 00:00:59;;;;;;;;;;;17.30;99.90;;;;;;5014172;28;20000;-23
2022/10/14 00:03:25;;;;;;;;;;;17.30;99.90;;;;;;5013562;28;20275;-24
2022/10/14 00:05:50;;;;;;;;;;;17.30;99.90;;;;;;5013994;28;19911;-23
2022/10/14 00:08:16;;;;;;;;;;;17.20;99.90;;;;;;5014604;28;20020;-23
2022/10/14 00:10:41;;;;;;;;;;;17.20;99.90;;;;;;5013997;28;19987;-23
2022/10/14 00:13:07;;;;;;;;;;;17.30;99.90;;;;;;5012338;28;19909;-24
2022/10/14 00:15:41;;;;;;;;;;;17.20;99.90;;;;;;5013020;28;19917;-23
2022/10/14 00:18:07;;;;;;;;;;;17.20;99.90;;;;;;5014211;28;19912;-23
2022/10/14 00:20:33;;;;;;;;;;;17.20;99.90;;;;;;5012540;28;19909;-24
2022/10/14 00:22:59;;;;;;;;;;;17.20;99.90;;;;;;5013244;28;20267;-23
2022/10/14 00:25:25;;;;;;;;;;;17.20;99.90;;;;;;5013626;28;19912;-23
2022/10/14 00:27:51;;;;;;;;;;;17.30;99.90;;;;;;5013568;28;19916;-24
2022/10/14 00:30:16;;;;;;;;;;;17.30;99.90;;;;;;5013316;28;20278;-23
2022/10/14 00:32:42;;;;;;;;;;;17.20;99.90;;;;;;5013103;28;19909;-24
2022/10/14 00:35:07;;;;;;;;;;;17.30;99.90;;;;;;5013551;28;19909;-23
2022/10/14 00:37:33;;;;;;;;;;;17.20;99.90;;;;;;5012219;28;19905;-23
2022/10/14 00:39:58;;;;;;;;;;;17.30;99.90;;;;;;5013341;28;20268;-23
2022/10/14 00:42:24;;;;;;;;;;;17.30;99.90;;;;;;5013478;28;19909;-23
2022/10/14 00:44:49;;;;;;;;;;;17.30;99.90;;;;;;5013938;28;19913;-23
2022/10/14 00:47:15;;;;;;;;;;;17.20;99.90;;;;;;5018059;28;19913;-23
2022/10/14 00:49:42;;;;;;;;;;;17.20;99.90;;;;;;5014983;28;19909;-23
2022/10/14 00:52:10;;;;;;;;;;;17.20;99.90;;;;;;5014424;28;19909;-23
2022/10/14 00:54:38;;;;;;;;;;;17.20;99.90;;;;;;5015097;28;19952;-23
2022/10/14 00:57:04;;;;;;;;;;;17.20;99.90;;;;;;5014991;28;19906;-23
2022/10/14 00:59:31;;;;;;;;;;;17.30;99.90;;;;;;5014898;28;19905;-23
2022/10/14 01:01:57;;;;;;;;;;;17.20;99.90;;;;;;5016139;28;19911;-23
2022/10/14 01:04:23;;;;;;;;;;;17.20;99.90;;;;;;5014305;28;20008;-23
2022/10/14 01:07:09;;;;;;;;;;;17.20;99.90;;;;;;5014979;28;20290;-23
2022/10/14 01:09:40;;;;;;;;;;;17.20;99.90;;;;;;5014169;28;20012;-24
2022/10/14 01:12:05;;;;;;;;;;;17.30;99.90;;;;;;5012545;28;19964;-23
2022/10/14 01:14:31;;;;;;;;;;;17.20;99.90;;;;;;5013688;28;19909;-24
2022/10/14 01:17:03;;;;;;;;;;;17.20;99.90;;;;;;5015581;28;19949;-23
2022/10/14 01:19:32;;;;;;;;;;;17.20;99.90;;;;;;5015291;28;20259;-23
2022/10/14 01:24:53;;;;;;;;;;;17.20;99.90;;;;;;5035119;22;19998;-25
2022/10/14 01:27:23;;;;;;;;;;;17.20;99.90;;;;;;4958857;28;19910;-25
2022/10/14 01:30:07;;;;;;;;;;;17.30;99.90;;;;;;5012659;28;19909;-26
2022/10/14 01:32:41;;;;;;;;;;;17.20;99.90;;;;;;5012022;28;19913;-25
2022/10/14 01:35:13;;;;;;;;;;;17.20;99.90;;;;;;5012629;28;19906;-25
2022/10/14 01:37:44;;;;;;;;;;;17.20;99.90;;;;;;5012407;28;20362;-25
2022/10/14 01:40:13;;;;;;;;;;;17.20;99.90;;;;;;5012498;28;19912;-26
2022/10/14 01:42:40;;;;;;;;;;;17.20;99.90;;;;;;5012075;28;19937;-26
2022/10/14 01:45:10;;;;;;;;;;;17.20;99.90;;;;;;5012260;28;19905;-25
2022/10/14 01:47:36;;;;;;;;;;;17.20;99.90;;;;;;5012121;28;19939;-25
2022/10/14 01:50:07;;;;;;;;;;;17.20;99.90;;;;;;5012511;28;19963;-25
2022/10/14 01:52:36;;;;;;;;;;;17.20;99.90;;;;;;5011986;28;20263;-25
2022/10/14 01:55:05;;;;;;;;;;;17.20;99.90;;;;;;5012282;28;19909;-25
2022/10/14 01:57:32;;;;;;;;;;;17.20;99.90;;;;;;5012260;28;19905;-25
2022/10/14 01:59:58;;;;;;;;;;;17.20;99.90;;;;;;5012215;28;19917;-26
2022/10/14 02:02:24;;;;;;;;;;;17.20;99.90;;;;;;5010703;28;20336;-26
2022/10/14 02:04:49;;;;;;;;;;;17.20;99.90;;;;;;5014431;28;19968;-25
2022/10/14 02:07:47;;;;;;;;;;;17.20;99.90;;;;;;5016155;28;20012;-25
2022/10/14 02:10:28;;;;;;;;;;;17.20;99.90;;;;;;5003870;28;19905;-25
2022/10/14 02:13:12;;;;;;;;;;;17.20;99.90;;;;;;5015932;28;20337;-25
2022/10/14 02:15:48;;;;;;;;;;;17.20;99.90;;;;;;5016139;28;20623;-25
2022/10/14 02:18:16;;;;;;;;;;;17.20;99.90;;;;;;5016099;28;19913;-25
2022/10/14 02:20:50;;;;;;;;;;;17.20;99.90;;;;;;5015981;28;19944;-25
2022/10/14 02:23:19;;;;;;;;;;;17.20;99.90;;;;;;5015432;28;20059;-25
2022/10/14 02:25:46;;;;;;;;;;;17.20;99.90;;;;;;5016046;28;20047;-26
2022/10/14 02:28:15;;;;;;;;;;;17.20;99.90;;;;;;5015914;28;20421;-25
2022/10/14 02:30:42;;;;;;;;;;;17.20;99.90;;;;;;5015809;28;20007;-25
2022/10/14 02:33:08;;;;;;;;;;;17.20;99.90;;;;;;5015461;28;20334;-25
2022/10/14 02:35:35;;;;;;;;;;;17.20;99.90;;;;;;5015687;28;20354;-25
2022/10/14 02:38:01;;;;;;;;;;;17.20;99.90;;;;;;5015649;28;20171;-25
2022/10/14 02:40:34;;;;;;;;;;;17.20;99.90;;;;;;5015586;28;20322;-25
2022/10/14 02:43:00;;;;;;;;;;;17.20;99.90;;;;;;5015247;28;19913;-25
2022/10/14 02:45:26;;;;;;;;;;;17.10;99.90;;;;;;5015423;28;19909;-25
2022/10/14 02:47:52;;;;;;;;;;;17.20;99.90;;;;;;5015416;28;20305;-25
2022/10/14 02:50:18;;;;;;;;;;;17.20;99.90;;;;;;5015386;28;19910;-25
2022/10/14 02:52:43;;;;;;;;;;;17.20;99.90;;;;;;5014857;28;19917;-26
2022/10/14 02:55:09;;;;;;;;;;;17.10;99.90;;;;;;5015136;28;20406;-25
2022/10/14 02:57:34;;;;;;;;;;;17.20;99.90;;;;;;5015016;28;19905;-25
2022/10/14 03:00:00;;;;;;;;;;;17.20;99.90;;;;;;5014949;28;20485;-26
2022/10/14 03:02:25;;;;;;;;;;;17.10;99.90;;;;;;5015027;28;19910;-26
2022/10/14 03:04:51;;;;;;;;;;;17.10;99.90;;;;;;5014926;28;19909;-25
2022/10/14 03:07:16;;;;;;;;;;;17.10;99.90;;;;;;5014868;28;19916;-26
2022/10/14 03:09:42;;;;;;;;;;;17.20;99.90;;;;;;5014799;28;19916;-26
2022/10/14 03:12:07;;;;;;;;;;;17.20;99.90;;;;;;5014654;28;19933;-25
2022/10/14 03:14:33;;;;;;;;;;;17.10;99.90;;;;;;5014505;28;20376;-26
2022/10/14 03:16:58;;;;;;;;;;;17.20;99.90;;;;;;5013417;28;19987;-25
2022/10/14 03:19:24;;;;;;;;;;;17.10;99.90;;;;;;5014618;28;19905;-25
2022/10/14 03:21:50;;;;;;;;;;;17.10;99.90;;;;;;5014561;28;20308;-25
2022/10/14 03:24:15;;;;;;;;;;;17.10;99.90;;;;;;5014222;28;19921;-26
2022/10/14 03:26:41;;;;;;;;;;;17.10;99.90;;;;;;5014523;28;19909;-26
2022/10/14 03:29:07;;;;;;;;;;;17.10;99.90;;;;;;5014434;28;19949;-26
2022/10/14 03:31:32;;;;;;;;;;;17.10;99.90;;;;;;5014310;28;20307;-26
2022/10/14 03:33:58;;;;;;;;;;;17.10;99.90;;;;;;5014134;28;19910;-25
2022/10/14 03:36:23;;;;;;;;;;;17.10;99.90;;;;;;5014551;28;20305;-25
2022/10/14 03:38:49;;;;;;;;;;;17.10;99.90;;;;;;5014315;28;20333;-26
2022/10/14 03:41:14;;;;;;;;;;;17.10;99.90;;;;;;5014401;28;20357;-25
2022/10/14 03:43:40;;;;;;;;;;;17.10;99.90;;;;;;5014670;28;20004;-26
2022/10/14 03:46:05;;;;;;;;;;;17.10;99.90;;;;;;5015011;28;19997;-26
2022/10/14 03:48:31;;;;;;;;;;;17.10;99.90;;;;;;5014891;28;19905;-25
2022/10/14 03:50:56;;;;;;;;;;;17.10;99.90;;;;;;5014921;28;19910;-25
2022/10/14 03:53:22;;;;;;;;;;;17.10;99.90;;;;;;5014836;28;19909;-25
2022/10/14 03:55:47;;;;;;;;;;;17.10;99.90;;;;;;5014080;28;19905;-25
2022/10/14 03:58:12;;;;;;;;;;;17.10;99.90;;;;;;5013900;28;19906;-25
2022/10/14 04:00:38;;;;;;;;;;;17.10;99.90;;;;;;5013718;28;19913;-25
2022/10/14 04:03:03;;;;;;;;;;;17.10;99.90;;;;;;5013838;28;20358;-25
2022/10/14 04:05:32;;;;;;;;;;;17.10;99.90;;;;;;5014117;28;20294;-25
2022/10/14 04:08:00;;;;;;;;;;;17.10;99.90;;;;;;5014005;28;19906;-25
2022/10/14 04:10:26;;;;;;;;;;;17.10;99.90;;;;;;5013877;28;20390;-26
2022/10/14 04:12:52;;;;;;;;;;;17.10;99.90;;;;;;5013569;28;19913;-25
2022/10/14 04:15:18;;;;;;;;;;;17.10;99.90;;;;;;5013639;28;20399;-25
2022/10/14 04:17:43;;;;;;;;;;;17.10;99.90;;;;;;5013686;28;19912;-25
2022/10/14 04:20:09;;;;;;;;;;;17.00;99.90;;;;;;5013763;28;20394;-25
2022/10/14 04:22:34;;;;;;;;;;;17.00;99.90;;;;;;5013405;28;19917;-25
2022/10/14 04:25:00;;;;;;;;;;;17.10;99.90;;;;;;5013723;28;19906;-25
2022/10/14 04:27:25;;;;;;;;;;;17.10;99.90;;;;;;5013194;28;19906;-25
2022/10/14 04:29:51;;;;;;;;;;;17.00;99.90;;;;;;5013357;28;19971;-25
2022/10/14 04:32:17;;;;;;;;;;;17.10;99.90;;;;;;5013457;28;20367;-25
2022/10/14 04:34:43;;;;;;;;;;;17.10;99.90;;;;;;5013326;28;19944;-25
2022/10/14 04:37:08;;;;;;;;;;;17.10;99.90;;;;;;5013584;28;19905;-26
2022/10/14 04:39:34;;;;;;;;;;;17.00;99.90;;;;;;5013296;28;19932;-26
2022/10/14 04:41:59;;;;;;;;;;;17.00;99.90;;;;;;5013415;28;20379;-25
2022/10/14 04:44:25;;;;;;;;;;;17.00;99.90;;;;;;5011618;28;19937;-25
2022/10/14 04:46:50;;;;;;;;;;;17.10;99.90;;;;;;5013322;28;19949;-26
2022/10/14 04:49:16;;;;;;;;;;;17.00;99.90;;;;;;5013266;28;19963;-25
2022/10/14 04:51:42;;;;;;;;;;;17.00;99.90;;;;;;5013158;28;20014;-26
2022/10/14 04:54:07;;;;;;;;;;;17.00;99.90;;;;;;5012903;28;19944;-25
2022/10/14 04:56:33;;;;;;;;;;;17.00;99.90;;;;;;5012989;28;19909;-25
2022/10/14 04:58:58;;;;;;;;;;;17.00;99.90;;;;;;5012796;28;19909;-25
2022/10/14 05:01:24;;;;;;;;;;;17.00;99.90;;;;;;5012926;28;20278;-25
2022/10/14 05:03:50;;;;;;;;;;;17.00;99.90;;;;;;5012671;28;19959;-25
2022/10/14 05:06:16;;;;;;;;;;;17.00;99.90;;;;;;5013043;28;19912;-25
2022/10/14 05:08:41;;;;;;;;;;;17.00;99.90;;;;;;5012894;28;19956;-25
2022/10/14 05:11:07;;;;;;;;;;;17.00;99.90;;;;;;5012769;28;20274;-25
2022/10/14 05:13:33;;;;;;;;;;;17.00;99.90;;;;;;5012915;28;19909;-25
2022/10/14 05:15:58;;;;;;;;;;;17.00;99.90;;;;;;5012712;28;19905;-25
2022/10/14 05:18:24;;;;;;;;;;;17.00;99.90;;;;;;5012656;28;19909;-26
2022/10/14 05:20:49;;;;;;;;;;;17.00;99.90;;;;;;5011549;28;19960;-26
2022/10/14 05:23:15;;;;;;;;;;;17.00;99.90;;;;;;5012501;28;19940;-25
2022/10/14 05:25:41;;;;;;;;;;;17.00;99.90;;;;;;5012781;28;20406;-25
2022/10/14 05:28:06;;;;;;;;;;;17.00;99.90;;;;;;5012495;28;19905;-25
2022/10/14 05:30:32;;;;;;;;;;;17.00;99.90;;;;;;5012485;28;19909;-25
2022/10/14 05:32:57;;;;;;;;;;;17.00;99.90;;;;;;5012387;28;19916;-25
2022/10/14 05:35:23;;;;;;;;;;;17.00;99.90;;;;;;5012531;28;19913;-25
2022/10/14 05:37:53;;;;;;;;;;;17.00;99.90;;;;;;5012568;28;19909;-25
2022/10/14 05:40:18;;;;;;;;;;;17.00;99.90;;;;;;5011956;28;19905;-25
2022/10/14 05:42:44;;;;;;;;;;;17.00;99.90;;;;;;5011979;28;20097;-25
2022/10/14 05:45:10;;;;;;;;;;;17.00;99.90;;;;;;5012404;28;19905;-25
2022/10/14 05:47:35;;;;;;;;;;;17.00;99.90;;;;;;5012302;28;20362;-26
2022/10/14 05:50:02;;;;;;;;;;;17.00;99.90;;;;;;5012467;28;19967;-25
2022/10/14 05:52:28;;;;;;;;;;;17.00;99.90;;;;;;5012226;28;19952;-25
2022/10/14 05:54:54;;;;;;;;;;;17.00;99.90;;;;;;5012331;28;19928;-25
2022/10/14 05:57:19;;;;;;;;;;;17.00;99.90;;;;;;5012020;28;20359;-26
2022/10/14 05:59:45;;;;;;;;;;;17.00;99.90;;;;;;5012251;28;20384;-25
2022/10/14 06:02:10;;;;;;;;;;;17.00;99.90;;;;;;5012216;28;19931;-25
2022/10/14 06:04:39;;;;;;;;;;;17.00;99.90;;;;;;5011929;28;19906;-25
2022/10/14 06:07:05;;;;;;;;;;;17.00;99.90;;;;;;5012619;28;19959;-25
2022/10/14 06:09:31;;;;;;;;;;;17.00;99.90;;;;;;5012116;28;19935;-25
2022/10/14 06:11:56;;;;;;;;;;;16.90;99.90;;;;;;5011991;28;19909;-25
2022/10/14 06:14:22;;;;;;;;;;;16.90;99.90;;;;;;5011832;28;20060;-27
2022/10/14 06:16:50;;;;;;;;;;;16.90;99.90;;;;;;5012176;28;20375;-26
2022/10/14 06:19:16;;;;;;;;;;;16.90;99.90;;;;;;5011959;28;20286;-26
2022/10/14 06:21:43;;;;;;;;;;;16.90;99.90;;;;;;5012075;28;19909;-26
2022/10/14 06:24:09;;;;;;;;;;;16.90;99.90;;;;;;5011571;28;20441;-26
2022/10/14 06:26:34;;;;;;;;;;;16.90;99.90;;;;;;5011829;28;19906;-27
2022/10/14 06:29:00;;;;;;;;;;;16.90;99.90;;;;;;5011952;28;20286;-25
2022/10/14 06:31:25;;;;;;;;;;;16.90;99.90;;;;;;5011743;28;19916;-25
2022/10/14 06:33:51;;;;;;;;;;;16.90;99.90;;;;;;5011590;28;20322;-25
2022/10/14 06:36:16;;;;;;;;;;;16.90;99.90;;;;;;5011928;28;20267;-25
2022/10/14 06:38:42;;;;;;;;;;;16.90;99.90;;;;;;5011861;28;19909;-25
2022/10/14 06:41:08;;;;;;;;;;;16.90;99.90;;;;;;5012070;28;19906;-25
2022/10/14 06:43:34;;;;;;;;;;;16.90;99.90;;;;;;5011543;28;20333;-25
2022/10/14 06:46:00;;;;;;;;;;;16.90;99.90;;;;;;5011895;28;20379;-25
2022/10/14 06:48:25;;;;;;;;;;;16.90;99.90;;;;;;5011888;28;19905;-25
2022/10/14 06:50:51;;;;;;;;;;;16.90;99.90;;;;;;5013793;28;20287;-25
2022/10/14 06:53:17;;;;;;;;;;;16.90;99.90;;;;;;5015233;28;19906;-25
2022/10/14 06:55:42;;;;;;;;;;;16.90;99.90;;;;;;5015151;28;19916;-26
2022/10/14 06:58:08;;;;;;;;;;;16.90;99.90;;;;;;5015119;28;20350;-25
2022/10/14 07:00:33;;;;;;;;;;;16.80;99.90;;;;;;5015633;28;20460;-25
2022/10/14 07:02:59;;;;;;;;;;;16.90;99.90;;;;;;5015165;28;19905;-25
2022/10/14 07:05:25;;;;;;;;;;;16.90;99.90;;;;;;5015265;28;20012;-25
2022/10/14 07:07:50;;;;;;;;;;;16.90;99.90;;;;;;5014960;28;20004;-25
2022/10/14 07:10:16;;;;;;;;;;;16.90;99.90;;;;;;5014951;28;19933;-26
2022/10/14 07:12:41;;;;;;;;;;;16.90;99.90;;;;;;5014721;28;19913;-26
2022/10/14 07:15:07;;;;;;;;;;;16.90;99.90;;;;;;5015135;28;19905;-25
2022/10/14 07:17:33;;;;;;;;;;;16.90;99.90;;;;;;5014963;28;20290;-25
2022/10/14 07:19:58;;;;;;;;;;;16.90;99.90;;;;;;5014914;28;19905;-25
2022/10/14 07:24:52;;;;;;;;;;;16.80;99.90;;;;;;5033494;28;19929;-23
2022/10/14 07:27:19;;;;;;;;;;;16.90;99.90;;;;;;5034315;28;19905;-23
2022/10/14 07:29:44;;;;;;;;;;;16.80;99.90;;;;;;5034559;28;20366;-23
2022/10/14 07:32:10;;;;;;;;;;;16.90;99.90;;;;;;5034213;28;19920;-23
2022/10/14 07:34:35;;;;;;;;;;;16.90;99.90;;;;;;5034052;28;20328;-23
2022/10/14 07:37:01;;;;;;;;;;;16.80;99.90;;;;;;5034230;28;20365;-23
2022/10/14 07:39:27;;;;;;;;;;;16.80;99.90;;;;;;5034183;28;20297;-23
2022/10/14 07:41:53;;;;;;;;;;;16.90;99.90;;;;;;5034276;28;20281;-23
2022/10/14 07:44:19;;;;;;;;;;;16.80;99.90;;;;;;5033902;28;19905;-23
2022/10/14 07:46:45;;;;;;;;;;;16.90;99.90;;;;;;5034109;28;19911;-23
2022/10/14 07:49:12;;;;;;;;;;;16.80;99.90;;;;;;5034218;28;19905;-23
2022/10/14 07:51:39;;;;;;;;;;;16.80;99.90;;;;;;5033957;28;19913;-23
2022/10/14 07:54:08;;;;;;;;;;;16.80;99.90;;;;;;5033493;28;20480;-23
2022/10/14 07:56:34;;;;;;;;;;;16.70;99.90;;;;;;5033914;28;19912;-23
2022/10/14 07:59:00;;;;;;;;;;;16.70;99.90;;;;;;5033888;28;20362;-23
2022/10/14 08:01:25;;;;;;;;;;;16.70;99.90;;;;;;5033311;28;19905;-23
2022/10/14 08:03:51;;;;;;;;;;;16.70;99.90;;;;;;5033461;28;19905;-24
2022/10/14 08:06:16;;;;;;;;;;;16.80;99.90;;;;;;5033758;28;19909;-24
2022/10/14 08:08:42;;;;;;;;;;;16.80;99.90;;;;;;5033508;28;19916;-24
2022/10/14 08:11:10;;;;;;;;;;;16.80;99.90;;;;;;5033353;28;19932;-24
2022/10/14 08:13:36;;;;;;;;;;;16.80;99.90;;;;;;5034435;28;19963;-24
2022/10/14 08:16:30;;;;;;;;;;;16.80;99.90;;;;;;5035333;28;20294;-24
2022/10/14 08:18:57;;;;;;;;;;;16.80;99.90;;;;;;5035498;28;19928;-24
2022/10/14 08:21:23;;;;;;;;;;;16.80;99.90;;;;;;5044090;28;19959;-24
2022/10/14 08:23:49;;;;;;;;;;;16.80;99.90;;;;;;5034767;28;20365;-24
2022/10/14 08:26:19;;;;;;;;;;;16.80;99.90;;;;;;5034746;28;20047;-24
2022/10/14 08:28:45;;;;;;;;;;;16.90;99.90;;;;;;5034558;28;19932;-24
2022/10/14 08:31:11;;;;;;;;;;;16.80;99.90;;;;;;5034586;28;19909;-24
2022/10/14 08:33:36;;;;;;;;;;;16.90;99.90;;;;;;5033823;28;20262;-24
2022/10/14 08:36:02;;;;;;;;;;;16.90;99.90;;;;;;5034057;28;19905;-24
2022/10/14 08:38:27;;;;;;;;;;;16.80;99.90;;;;;;5034194;28;20287;-24
2022/10/14 08:40:53;;;;;;;;;;;16.90;99.90;;;;;;5033894;28;20362;-24
2022/10/14 08:43:39;;;;;;;;;;;16.90;99.90;;;;;;5034160;28;19912;-24
2022/10/14 08:46:09;;;;;;;;;;;16.90;99.90;;;;;;5033413;28;19905;-24
2022/10/14 08:48:36;;;;;;;;;;;16.90;99.90;;;;;;5032131;28;20270;-24
2022/10/14 08:51:12;;;;;;;;;;;16.90;99.90;;;;;;5033585;28;19916;-24
2022/10/14 08:53:43;;;;;;;;;;;16.90;99.90;;;;;;5033428;28;19959;-24
2022/10/14 08:56:10;;;;;;;;;;;16.90;99.90;;;;;;5032755;28;19905;-24
2022/10/14 08:58:38;;;;;;;;;;;16.90;99.90;;;;;;5033353;28;19991;-24
2022/10/14 09:01:12;;;;;;;;;;;16.90;99.90;;;;;;5033271;28;19990;-24
2022/10/14 09:03:37;;;;;;;;;;;16.90;99.90;;;;;;5032770;28;19905;-24
2022/10/14 09:06:09;;;;;;;;;;;16.90;99.90;;;;;;5033281;28;20362;-24
2022/10/14 09:08:41;;;;;;;;;;;16.90;99.90;;;;;;5033031;28;19911;-24
2022/10/14 09:11:10;;;;;;;;;;;16.90;99.90;;;;;;5032765;28;19909;-24
2022/10/14 09:13:38;;;;;;;;;;;16.90;99.90;;;;;;5031668;28;19912;-24
2022/10/14 09:16:07;;;;;;;;;;;16.90;99.90;;;;;;5032444;28;19912;-24
2022/10/14 09:18:40;;;;;;;;;;;16.90;99.90;;;;;;5032720;28;19944;-24
2022/10/14 09:21:29;;;;;;;;;;;16.90;99.90;;;;;;5031989;28;19940;-24
2022/10/14 09:24:02;;;;;;;;;;;16.90;99.90;;;;;;5025976;28;19920;-24
2022/10/14 09:26:37;;;;;;;;;;;16.90;99.90;;;;;;5032339;28;20365;-23
2022/10/14 09:29:03;;;;;;;;;;;17.00;99.90;;;;;;5032808;28;19916;-23
2022/10/14 09:31:28;;;;;;;;;;;16.90;99.90;;;;;;5032283;28;20007;-23
2022/10/14 09:33:54;;;;;;;;;;;16.80;99.90;;;;;;5031940;28;20317;-23
2022/10/14 09:36:20;;;;;;;;;;;16.80;99.90;;;;;;5032458;28;19987;-23
2022/10/14 09:38:51;;;;;;;;;;;16.80;99.90;;;;;;5032351;28;19908;-23
2022/10/14 09:41:18;;;;;;;;;;;16.80;99.90;;;;;;5032045;28;20385;-23
2022/10/14 09:44:02;;;;;;;;;;;16.80;99.90;;;;;;5032040;28;19959;-23
2022/10/14 09:46:28;;;;;;;;;;;17.00;99.90;;;;;;5032500;28;19951;-23
2022/10/14 09:48:55;;;;;;;;;;;17.00;99.90;;;;;;5032028;28;20303;-23
2022/10/14 09:51:23;;;;;;;;;;;17.00;99.90;;;;;;5031907;28;20386;-23
2022/10/14 09:53:53;;;;;;;;;;;17.10;99.90;;;;;;5031898;28;20401;-23
2022/10/14 09:56:29;;;;;;;;;;;17.10;99.90;;;;;;5032885;28;19909;-23
2022/10/14 09:58:56;;;;;;;;;;;17.10;99.90;;;;;;5031991;28;19905;-24
2022/10/14 10:01:26;;;;;;;;;;;17.10;99.90;;;;;;5031640;28;19932;-24
2022/10/14 10:03:52;;;;;;;;;;;17.20;99.90;;;;;;5031314;28;19905;-24
2022/10/14 10:06:27;;;;;;;;;;;17.20;99.90;;;;;;5031599;28;19958;-24
2022/10/14 10:08:52;;;;;;;;;;;17.20;99.90;;;;;;5031652;28;20369;-23
2022/10/14 10:11:37;;;;;;;;;;;17.20;99.90;;;;;;5031440;28;19915;-22
2022/10/14 10:14:21;;;;;;;;;;;17.30;99.90;;;;;;5030023;28;19905;-22
2022/10/14 10:16:47;;;;;;;;;;;17.20;99.90;;;;;;5031944;28;19915;-23
2022/10/14 10:19:33;;;;;;;;;;;17.10;99.90;;;;;;5031633;28;19996;-23
2022/10/14 10:22:17;;;;;;;;;;;17.10;99.90;;;;;;5031247;28;19905;-23
2022/10/14 10:24:45;;;;;;;;;;;17.10;99.90;;;;;;5031490;28;19920;-23
2022/10/14 10:27:23;;;;;;;;;;;17.10;99.90;;;;;;5035346;28;19912;-24
2022/10/14 10:29:48;;;;;;;;;;;17.20;99.90;;;;;;5035313;28;19924;-24
2022/10/14 10:32:33;;;;;;;;;;;17.20;99.90;;;;;;5035026;28;20282;-24
2022/10/14 10:34:58;;;;;;;;;;;17.20;99.90;;;;;;5034974;28;19905;-24
2022/10/14 10:37:32;;;;;;;;;;;17.20;99.90;;;;;;5034990;28;19924;-24
2022/10/14 10:40:16;;;;;;;;;;;17.20;99.90;;;;;;5034907;28;19913;-24
2022/10/14 10:42:48;;;;;;;;;;;17.20;99.90;;;;;;5034321;28;19988;-24
2022/10/14 10:45:15;;;;;;;;;;;17.20;99.90;;;;;;5034832;28;19907;-24
2022/10/14 10:47:57;;;;;;;;;;;17.20;99.90;;;;;;5034949;28;19912;-24
2022/10/14 10:50:23;;;;;;;;;;;17.20;99.90;;;;;;5034985;28;19955;-24
2022/10/14 10:53:07;;;;;;;;;;;17.20;99.90;;;;;;5034527;28;20325;-24
2022/10/14 10:55:38;;;;;;;;;;;17.10;99.90;;;;;;5035025;28;20628;-24
2022/10/14 10:58:16;;;;;;;;;;;17.10;99.90;;;;;;5034860;28;19908;-24
2022/10/14 11:01:00;;;;;;;;;;;17.10;99.90;;;;;;5034804;28;19936;-24
2022/10/14 11:03:36;;;;;;;;;;;17.10;99.90;;;;;;5033995;28;19928;-24
2022/10/14 11:06:09;;;;;;;;;;;17.10;99.90;;;;;;5034648;28;19940;-24
2022/10/14 11:14:20;;;;;;;;;;;17.10;99.90;;;;;;5034443;28;20266;-24
2022/10/14 11:16:54;;;;;;;;;;;17.10;99.90;;;;;;5034569;28;20003;-24
2022/10/14 11:19:19;;;;;;;;;;;17.10;99.90;;;;;;5034225;28;19916;-24
2022/10/14 11:21:57;;;;;;;;;;;17.10;99.90;;;;;;5034289;28;19905;-24
2022/10/14 11:24:25;;;;;;;;;;;17.10;99.90;;;;;;5033862;28;20385;-24
2022/10/14 11:26:57;;;;;;;;;;;17.10;99.90;;;;;;5034354;28;19905;-24
2022/10/14 11:29:28;;;;;;;;;;;17.10;99.90;;;;;;5034342;28;20344;-24
2022/10/14 11:31:59;;;;;;;;;;;17.10;99.90;;;;;;5032996;28;19915;-24
2022/10/14 11:34:37;;;;;;;;;;;17.10;99.90;;;;;;5033893;28;19912;-24
2022/10/14 11:37:26;;;;;;;;;;;17.10;99.90;;;;;;5033100;28;19929;-24
2022/10/14 11:39:52;;;;;;;;;;;17.20;99.90;;;;;;5028145;28;19905;-24
2022/10/14 11:42:20;;;;;;;;;;;17.20;99.90;;;;;;5033837;28;20085;-24
2022/10/14 11:44:48;;;;;;;;;;;17.20;99.90;;;;;;5033490;28;20393;-24
2022/10/14 11:47:26;;;;;;;;;;;17.10;99.90;;;;;;5031943;28;19913;-24
2022/10/14 11:49:59;;;;;;;;;;;17.20;99.90;;;;;;5033829;28;19905;-24
2022/10/14 11:52:27;;;;;;;;;;;17.20;99.90;;;;;;5033404;28;20384;-24
2022/10/14 11:54:56;;;;;;;;;;;17.20;99.90;;;;;;5033582;28;19911;-24
2022/10/14 11:57:32;;;;;;;;;;;17.20;99.90;;;;;;5033669;28;19962;-24
2022/10/14 12:00:00;;;;;;;;;;;17.20;99.90;;;;;;5033622;28;20393;-24
2022/10/14 12:02:43;;;;;;;;;;;17.20;99.90;;;;;;5033331;28;19905;-24
2022/10/14 12:05:12;;;;;;;;;;;17.20;99.90;;;;;;5033358;28;19912;-24
2022/10/14 12:07:57;;;;;;;;;;;17.20;99.90;;;;;;5033250;28;19912;-24
2022/10/14 12:10:26;;;;;;;;;;;17.20;99.90;;;;;;5033045;28;19948;-24
2022/10/14 12:12:51;;;;;;;;;;;17.20;99.90;;;;;;5032932;28;19932;-24
2022/10/14 12:15:22;;;;;;;;;;;17.20;99.90;;;;;;5033196;28;20324;-24
2022/10/14 12:18:00;;;;;;;;;;;17.20;99.90;;;;;;5033728;28;20366;-24
2022/10/14 12:20:32;;;;;;;;;;;17.20;99.90;;;;;;5034753;28;20282;-24
2022/10/14 12:22:59;;;;;;;;;;;17.20;99.90;;;;;;5032548;28;19935;-24
2022/10/14 12:25:26;;;;;;;;;;;17.20;99.90;;;;;;5034025;28;19905;-23
2022/10/14 12:27:54;;;;;;;;;;;17.20;99.90;;;;;;5033385;28;19905;-23
2022/10/14 12:30:39;;;;;;;;;;;17.20;99.90;;;;;;5034120;28;20262;-23
2022/10/14 12:33:07;;;;;;;;;;;17.20;99.90;;;;;;5033092;28;20502;-23
2022/10/14 12:35:48;;;;;;;;;;;17.20;99.90;;;;;;5033710;28;19905;-23
2022/10/14 12:38:13;;;;;;;;;;;17.30;99.90;;;;;;5033588;28;19953;-23
2022/10/14 12:40:39;;;;;;;;;;;17.30;99.90;;;;;;5033696;28;20334;-24
2022/10/14 12:43:16;;;;;;;;;;;17.30;99.90;;;;;;5033306;28;19909;-23
2022/10/14 12:45:46;;;;;;;;;;;17.30;99.90;;;;;;5033244;28;19905;-24
2022/10/14 12:48:20;;;;;;;;;;;17.30;99.90;;;;;;5032989;28;19936;-23
2022/10/14 12:50:47;;;;;;;;;;;17.30;99.90;;;;;;5033140;28;19913;-23
2022/10/14 12:53:21;;;;;;;;;;;17.30;99.90;;;;;;5032639;28;19915;-23
2022/10/14 12:55:49;;;;;;;;;;;17.30;99.90;;;;;;5033141;28;20259;-23
2022/10/14 12:58:20;;;;;;;;;;;17.30;99.90;;;;;;5032822;28;20947;-23
2022/10/14 13:00:51;;;;;;;;;;;17.30;99.90;;;;;;5032615;28;19952;-23
2022/10/14 13:03:19;;;;;;;;;;;17.30;99.90;;;;;;5032574;28;19913;-23
2022/10/14 13:05:45;;;;;;;;;;;17.30;99.90;;;;;;5032102;28;20277;-23
2022/10/14 13:08:10;;;;;;;;;;;17.30;99.90;;;;;;5032297;28;20305;-23
2022/10/14 13:10:36;;;;;;;;;;;17.30;99.90;;;;;;5032994;28;20354;-24
2022/10/14 13:13:22;;;;;;;;;;;17.30;99.90;;;;;;5031911;28;19909;-24
2022/10/14 13:15:50;;;;;;;;;;;17.30;99.90;;;;;;5025069;28;19966;-24
2022/10/14 13:18:24;;;;;;;;;;;17.30;99.90;;;;;;5032111;28;19905;-23
2022/10/14 13:20:51;;;;;;;;;;;17.30;99.90;;;;;;5032066;28;20382;-23
2022/10/14 13:23:29;;;;;;;;;;;17.30;99.90;;;;;;5030639;28;19975;-24
2022/10/14 13:25:58;;;;;;;;;;;17.30;99.90;;;;;;5032037;28;19927;-24
2022/10/14 13:28:29;;;;;;;;;;;17.30;99.90;;;;;;5031712;28;19908;-23
2022/10/14 13:31:00;;;;;;;;;;;17.30;99.90;;;;;;5031891;28;20000;-24
2022/10/14 13:33:33;;;;;;;;;;;17.30;99.90;;;;;;5031155;28;20389;-24
2022/10/14 13:36:06;;;;;;;;;;;17.30;99.90;;;;;;5031790;28;19905;-24
2022/10/14 13:38:32;;;;;;;;;;;17.30;99.90;;;;;;5031386;28;20449;-24
2022/10/14 13:40:58;;;;;;;;;;;17.30;99.90;;;;;;5031480;28;20445;-24
2022/10/14 13:43:27;;;;;;;;;;;17.30;99.90;;;;;;5030121;28;19911;-23
2022/10/14 13:46:03;;;;;;;;;;;17.30;99.90;;;;;;5031833;28;19992;-24
2022/10/14 13:48:38;;;;;;;;;;;17.30;99.90;;;;;;5031921;28;19905;-23
2022/10/14 13:51:09;;;;;;;;;;;17.30;99.90;;;;;;5030728;28;19909;-23
2022/10/14 13:53:35;;;;;;;;;;;17.30;99.90;;;;;;5031802;28;19909;-24
2022/10/14 13:56:00;;;;;;;;;;;17.30;99.90;;;;;;5031649;28;20001;-24
2022/10/14 13:58:26;;;;;;;;;;;17.30;99.90;;;;;;5031499;28;19932;-23
2022/10/14 14:00:56;;;;;;;;;;;17.30;99.90;;;;;;5036368;28;19905;-24
2022/10/14 14:03:24;;;;;;;;;;;17.30;99.90;;;;;;5038021;28;19905;-24
2022/10/14 14:05:49;;;;;;;;;;;17.30;99.90;;;;;;5038022;28;19912;-24
2022/10/14 14:08:23;;;;;;;;;;;17.30;99.90;;;;;;5038016;28;19905;-24
2022/10/14 14:10:50;;;;;;;;;;;17.30;99.90;;;;;;5036911;28;19955;-24
2022/10/14 14:13:15;;;;;;;;;;;17.30;99.90;;;;;;5037870;28;19913;-23
2022/10/14 14:15:42;;;;;;;;;;;17.30;99.90;;;;;;5038096;28;19959;-24
2022/10/14 14:18:24;;;;;;;;;;;17.30;99.90;;;;;;5037878;28;19908;-23
2022/10/14 14:20:57;;;;;;;;;;;17.30;99.90;;;;;;5038100;28;20294;-25
2022/10/14 14:23:22;;;;;;;;;;;17.30;99.90;;;;;;5037659;28;19913;-23
2022/10/14 14:25:48;;;;;;;;;;;17.20;99.90;;;;;;5037912;28;19909;-23
2022/10/14 14:28:14;;;;;;;;;;;17.30;99.90;;;;;;5038131;28;19912;-24
2022/10/14 14:30:40;;;;;;;;;;;17.30;99.90;;;;;;5038053;28;19909;-23
2022/10/14 14:33:06;;;;;;;;;;;17.30;99.90;;;;;;5037381;28;19913;-24
2022/10/14 14:35:32;;;;;;;;;;;17.30;99.90;;;;;;5037413;28;19904;-23